createdAt,value
2018-02-05T00:00:06.232Z,90.82
2018-02-05T00:01:06.212Z,90.82
2018-02-05T00:02:06.213Z,90.16
2018-02-05T00:03:06.148Z,89.97
2018-02-05T00:04:06.110Z,90.72
2018-02-05T00:05:06.084Z,90.82
2018-02-05T00:06:06.054Z,90.53
2018-02-05T00:07:06.028Z,90.91
2018-02-05T00:08:06.024Z,91.29
2018-02-05T00:09:05.966Z,91.58
2018-02-05T00:10:05.937Z,91.39
2018-02-05T00:11:05.910Z,91.86
2018-02-05T00:12:05.883Z,92.14
2018-02-05T00:13:05.890Z,91.86
2018-02-05T00:14:05.818Z,91.96
2018-02-05T00:15:05.793Z,91.96
2018-02-05T00:16:05.761Z,92.14
2018-02-05T00:17:05.738Z,92.05
2018-02-05T00:18:05.705Z,92.05
2018-02-05T00:19:05.703Z,92.61
2018-02-05T00:20:05.652Z,92.43
2018-02-05T00:21:05.612Z,92.52
2018-02-05T00:22:05.581Z,92.43
2018-02-05T00:23:05.560Z,92.10
2018-02-05T00:24:05.587Z,92.10
2018-02-05T00:25:05.499Z,92.57
2018-02-05T00:26:05.497Z,92.43
2018-02-05T00:27:05.439Z,92.71
2018-02-05T00:28:05.415Z,92.19
2018-02-05T00:29:05.381Z,91.96
2018-02-05T00:30:05.375Z,92.05
2018-02-05T00:31:05.325Z,92.05
2018-02-05T00:32:05.285Z,92.05
2018-02-05T00:33:05.259Z,91.96
2018-02-05T00:34:05.236Z,91.91
2018-02-05T00:35:05.244Z,91.86
2018-02-05T00:36:05.174Z,92.10
2018-02-05T00:37:05.140Z,92.29
2018-02-05T00:38:05.115Z,91.91
2018-02-05T00:39:05.079Z,91.91
2018-02-05T00:40:05.050Z,92.47
2018-02-05T00:41:05.046Z,92.57
2018-02-05T00:42:04.995Z,92.57
2018-02-05T00:43:04.957Z,92.38
2018-02-05T00:44:04.931Z,92.29
2018-02-05T00:45:04.903Z,92.47
2018-02-05T00:46:04.909Z,92.38
2018-02-05T00:47:04.841Z,92.66
2018-02-05T00:48:04.811Z,92.38
2018-02-05T00:49:04.788Z,92.66
2018-02-05T00:50:04.807Z,92.10
2018-02-05T00:51:04.728Z,91.91
2018-02-05T00:52:04.717Z,92.10
2018-02-05T00:53:04.665Z,91.81
2018-02-05T00:54:04.634Z,92.19
2018-02-05T00:55:04.600Z,92.00
2018-02-05T00:56:04.574Z,92.19
2018-02-05T00:57:04.580Z,92.10
2018-02-05T00:58:04.511Z,92.00
2018-02-05T00:59:04.482Z,92.00
2018-02-05T01:00:04.452Z,91.81
2018-02-05T01:01:04.422Z,91.91
2018-02-05T01:02:04.388Z,92.10
2018-02-05T01:03:04.389Z,92.00
2018-02-05T01:04:04.340Z,92.00
2018-02-05T01:05:04.306Z,92.10
2018-02-05T01:06:04.275Z,92.38
2018-02-05T01:07:04.299Z,91.91
2018-02-05T01:08:04.251Z,92.00
2018-02-05T01:09:04.183Z,92.57
2018-02-05T01:10:04.152Z,92.19
2018-02-05T01:11:04.130Z,92.29
2018-02-05T01:12:04.092Z,91.91
2018-02-05T01:13:04.059Z,92.10
2018-02-05T01:14:04.051Z,92.19
2018-02-05T01:15:04.002Z,91.91
2018-02-05T01:16:03.973Z,92.47
2018-02-05T01:17:03.940Z,92.29
2018-02-05T01:18:03.907Z,92.47
2018-02-05T01:19:03.903Z,92.29
2018-02-05T01:20:03.859Z,92.76
2018-02-05T01:21:03.841Z,92.76
2018-02-05T01:22:03.798Z,93.51
2018-02-05T01:23:03.804Z,93.23
2018-02-05T01:24:03.736Z,93.23
2018-02-05T01:25:03.705Z,93.13
2018-02-05T01:26:03.694Z,93.13
2018-02-05T01:27:03.639Z,93.04
2018-02-05T01:28:03.604Z,93.32
2018-02-05T01:29:03.584Z,92.57
2018-02-05T01:30:03.548Z,92.76
2018-02-05T01:31:03.544Z,92.19
2018-02-05T01:32:03.489Z,92.47
2018-02-05T01:33:03.467Z,92.47
2018-02-05T01:34:03.423Z,92.47
2018-02-05T01:35:03.411Z,92.47
2018-02-05T01:36:03.405Z,92.29
2018-02-05T01:37:03.332Z,92.57
2018-02-05T01:38:03.304Z,92.00
2018-02-05T01:39:03.274Z,92.10
2018-02-05T01:40:03.244Z,92.38
2018-02-05T01:41:03.217Z,93.23
2018-02-05T01:42:03.220Z,93.23
2018-02-05T01:43:03.155Z,93.13
2018-02-05T01:44:03.124Z,93.70
2018-02-05T01:45:03.091Z,93.32
2018-02-05T01:46:03.063Z,93.51
2018-02-05T01:47:03.037Z,93.61
2018-02-05T01:48:03.044Z,93.51
2018-02-05T01:49:02.971Z,93.42
2018-02-05T01:50:02.939Z,93.32
2018-02-05T01:51:02.909Z,93.04
2018-02-05T01:52:02.879Z,92.94
2018-02-05T01:53:02.853Z,93.80
2018-02-05T01:54:02.861Z,93.42
2018-02-05T01:55:02.790Z,93.61
2018-02-05T01:56:02.758Z,93.13
2018-02-05T01:57:02.725Z,93.42
2018-02-05T01:58:02.699Z,92.85
2018-02-05T01:59:02.666Z,93.61
2018-02-05T02:00:02.673Z,93.42
2018-02-05T02:01:02.602Z,93.04
2018-02-05T02:02:02.575Z,93.47
2018-02-05T02:03:02.547Z,93.13
2018-02-05T02:04:02.514Z,93.04
2018-02-05T02:05:02.487Z,92.99
2018-02-05T02:06:02.479Z,93.37
2018-02-05T02:07:02.423Z,93.23
2018-02-05T02:08:02.397Z,93.28
2018-02-05T02:09:02.362Z,93.04
2018-02-05T02:10:02.334Z,93.28
2018-02-05T02:11:02.326Z,93.23
2018-02-05T02:12:02.277Z,93.13
2018-02-05T02:13:02.242Z,93.42
2018-02-05T02:14:02.208Z,93.13
2018-02-05T02:15:02.180Z,93.32
2018-02-05T02:16:02.193Z,93.61
2018-02-05T02:17:02.121Z,93.32
2018-02-05T02:18:02.087Z,93.61
2018-02-05T02:19:02.057Z,93.51
2018-02-05T02:20:02.029Z,93.51
2018-02-05T02:21:01.994Z,93.61
2018-02-05T02:22:02.006Z,93.32
2018-02-05T02:23:01.941Z,93.13
2018-02-05T02:24:01.904Z,93.13
2018-02-05T02:25:01.875Z,93.80
2018-02-05T02:26:01.845Z,93.61
2018-02-05T02:27:01.818Z,93.23
2018-02-05T02:28:01.825Z,93.70
2018-02-05T02:29:01.750Z,93.61
2018-02-05T02:30:01.751Z,93.70
2018-02-05T02:31:01.701Z,93.32
2018-02-05T02:32:01.661Z,93.51
2018-02-05T02:33:01.628Z,93.32
2018-02-05T02:34:01.636Z,93.32
2018-02-05T02:35:01.571Z,93.61
2018-02-05T02:36:01.544Z,93.32
2018-02-05T02:37:01.511Z,93.42
2018-02-05T02:38:01.528Z,93.32
2018-02-05T02:39:01.450Z,93.42
2018-02-05T02:40:01.453Z,93.61
2018-02-05T02:41:01.385Z,93.42
2018-02-05T02:42:01.360Z,93.61
2018-02-05T02:43:01.329Z,93.89
2018-02-05T02:44:01.295Z,93.80
2018-02-05T02:45:01.266Z,93.70
2018-02-05T02:46:01.331Z,93.80
2018-02-05T02:47:01.203Z,93.70
2018-02-05T02:48:01.180Z,93.51
2018-02-05T02:49:01.146Z,93.61
2018-02-05T02:50:01.124Z,93.04
2018-02-05T02:51:01.112Z,93.32
2018-02-05T02:52:01.053Z,93.51
2018-02-05T02:53:01.025Z,93.80
2018-02-05T02:54:00.992Z,93.61
2018-02-05T02:55:00.962Z,93.70
2018-02-05T02:56:00.967Z,93.80
2018-02-05T02:57:00.903Z,93.70
2018-02-05T02:58:00.868Z,93.70
2018-02-05T02:59:00.839Z,93.61
2018-02-05T03:00:01.391Z,93.51
2018-02-05T03:01:00.780Z,93.70
2018-02-05T03:02:00.798Z,93.80
2018-02-05T03:03:00.718Z,94.27
2018-02-05T03:04:00.687Z,94.27
2018-02-05T03:05:00.658Z,94.08
2018-02-05T03:06:00.628Z,93.99
2018-02-05T03:07:00.610Z,94.08
2018-02-05T03:08:00.608Z,93.99
2018-02-05T03:09:00.538Z,94.18
2018-02-05T03:10:00.511Z,94.18
2018-02-05T03:11:00.478Z,94.27
2018-02-05T03:12:00.446Z,94.27
2018-02-05T03:13:00.426Z,94.27
2018-02-05T03:14:00.450Z,94.27
2018-02-05T03:15:00.357Z,94.46
2018-02-05T03:16:00.326Z,94.27
2018-02-05T03:17:00.300Z,94.93
2018-02-05T03:18:00.263Z,94.84
2018-02-05T03:19:00.232Z,94.56
2018-02-05T03:20:00.254Z,94.37
2018-02-05T03:21:00.182Z,94.27
2018-02-05T03:22:00.142Z,94.27
2018-02-05T03:23:00.113Z,94.56
2018-02-05T03:24:00.084Z,94.08
2018-02-05T03:25:00.057Z,94.27
2018-02-05T03:26:00.053Z,93.99
2018-02-05T03:26:59.992Z,94.27
2018-02-05T03:27:59.960Z,94.08
2018-02-05T03:28:59.929Z,93.70
2018-02-05T03:29:59.909Z,93.70
2018-02-05T03:30:59.897Z,93.70
2018-02-05T03:31:59.848Z,93.80
2018-02-05T03:32:59.809Z,93.70
2018-02-05T03:33:59.779Z,93.61
2018-02-05T03:34:59.750Z,93.51
2018-02-05T03:35:59.760Z,93.32
2018-02-05T03:36:59.687Z,93.32
2018-02-05T03:37:59.658Z,93.13
2018-02-05T03:38:59.628Z,93.13
2018-02-05T03:39:59.600Z,93.80
2018-02-05T03:40:59.568Z,92.94
2018-02-05T03:41:59.574Z,93.23
2018-02-05T03:42:59.515Z,93.04
2018-02-05T03:43:59.482Z,93.13
2018-02-05T03:44:59.447Z,92.94
2018-02-05T03:45:59.418Z,92.94
2018-02-05T03:46:59.387Z,92.76
2018-02-05T03:47:59.400Z,93.13
2018-02-05T03:48:59.324Z,93.13
2018-02-05T03:49:59.298Z,93.32
2018-02-05T03:50:59.268Z,92.94
2018-02-05T03:51:59.237Z,93.42
2018-02-05T03:52:59.206Z,93.70
2018-02-05T03:53:59.214Z,93.13
2018-02-05T03:54:59.156Z,92.94
2018-02-05T03:55:59.118Z,92.94
2018-02-05T03:56:59.083Z,92.94
2018-02-05T03:57:59.054Z,93.42
2018-02-05T03:58:59.027Z,93.32
2018-02-05T03:59:59.037Z,93.51
2018-02-05T04:00:58.975Z,93.32
2018-02-05T04:01:58.933Z,93.42
2018-02-05T04:02:58.904Z,93.61
2018-02-05T04:03:58.876Z,93.51
2018-02-05T04:04:58.846Z,93.42
2018-02-05T04:05:58.837Z,93.23
2018-02-05T04:06:58.784Z,93.51
2018-02-05T04:07:58.777Z,93.42
2018-02-05T04:08:58.731Z,93.04
2018-02-05T04:09:58.693Z,93.80
2018-02-05T04:10:58.692Z,93.13
2018-02-05T04:11:58.644Z,93.51
2018-02-05T04:12:58.604Z,93.13
2018-02-05T04:13:58.571Z,93.32
2018-02-05T04:14:58.543Z,93.32
2018-02-05T04:15:58.685Z,93.13
2018-02-05T04:16:58.481Z,93.13
2018-02-05T04:17:58.460Z,93.32
2018-02-05T04:18:58.429Z,93.51
2018-02-05T04:19:58.400Z,93.32
2018-02-05T04:20:58.361Z,93.23
2018-02-05T04:21:58.368Z,92.47
2018-02-05T04:22:58.301Z,92.38
2018-02-05T04:23:58.272Z,92.29
2018-02-05T04:24:58.242Z,92.29
2018-02-05T04:25:58.210Z,92.00
2018-02-05T04:26:58.217Z,92.00
2018-02-05T04:27:58.189Z,91.81
2018-02-05T04:28:58.124Z,91.43
2018-02-05T04:29:58.091Z,91.53
2018-02-05T04:30:58.065Z,91.53
2018-02-05T04:31:58.038Z,91.43
2018-02-05T04:32:58.008Z,91.24
2018-02-05T04:33:58.019Z,91.24
2018-02-05T04:34:57.938Z,91.24
2018-02-05T04:35:57.910Z,91.53
2018-02-05T04:36:57.883Z,91.43
2018-02-05T04:37:57.854Z,91.15
2018-02-05T04:38:57.818Z,91.15
2018-02-05T04:39:57.834Z,90.68
2018-02-05T04:40:57.762Z,90.96
2018-02-05T04:41:57.732Z,90.86
2018-02-05T04:42:57.701Z,90.96
2018-02-05T04:43:57.671Z,91.05
2018-02-05T04:44:57.646Z,91.43
2018-02-05T04:45:57.638Z,90.86
2018-02-05T04:46:57.582Z,91.15
2018-02-05T04:47:57.549Z,90.86
2018-02-05T04:48:57.516Z,90.68
2018-02-05T04:49:57.488Z,90.77
2018-02-05T04:50:57.493Z,90.86
2018-02-05T04:51:57.430Z,91.24
2018-02-05T04:52:57.396Z,90.68
2018-02-05T04:53:57.372Z,90.68
2018-02-05T04:54:57.337Z,90.96
2018-02-05T04:55:57.338Z,91.24
2018-02-05T04:56:57.273Z,91.24
2018-02-05T04:57:57.247Z,91.43
2018-02-05T04:58:57.213Z,91.53
2018-02-05T04:59:57.185Z,91.34
2018-02-05T05:00:57.249Z,91.34
2018-02-05T05:01:57.123Z,91.62
2018-02-05T05:02:57.095Z,91.05
2018-02-05T05:03:57.063Z,91.34
2018-02-05T05:04:57.043Z,91.24
2018-02-05T05:05:57.000Z,91.43
2018-02-05T05:06:57.015Z,91.53
2018-02-05T05:07:56.946Z,91.43
2018-02-05T05:08:56.914Z,91.53
2018-02-05T05:09:56.880Z,91.81
2018-02-05T05:10:56.852Z,91.81
2018-02-05T05:11:56.846Z,92.10
2018-02-05T05:12:56.826Z,91.72
2018-02-05T05:13:56.760Z,91.91
2018-02-05T05:14:56.726Z,91.91
2018-02-05T05:15:56.708Z,92.10
2018-02-05T05:16:56.673Z,91.91
2018-02-05T05:17:56.678Z,92.38
2018-02-05T05:18:56.610Z,92.10
2018-02-05T05:19:56.582Z,91.91
2018-02-05T05:20:56.562Z,91.81
2018-02-05T05:21:56.521Z,92.10
2018-02-05T05:22:56.487Z,92.29
2018-02-05T05:23:56.509Z,91.91
2018-02-05T05:24:56.428Z,91.72
2018-02-05T05:25:56.396Z,91.81
2018-02-05T05:26:56.380Z,92.00
2018-02-05T05:27:56.338Z,91.91
2018-02-05T05:28:56.348Z,91.91
2018-02-05T05:29:56.281Z,91.72
2018-02-05T05:30:56.247Z,90.96
2018-02-05T05:31:56.215Z,91.24
2018-02-05T05:32:56.188Z,91.53
2018-02-05T05:33:56.158Z,91.05
2018-02-05T05:34:56.169Z,91.34
2018-02-05T05:35:56.095Z,91.34
2018-02-05T05:36:56.063Z,90.86
2018-02-05T05:37:56.034Z,91.62
2018-02-05T05:38:56.004Z,91.62
2018-02-05T05:39:55.971Z,92.00
2018-02-05T05:40:55.968Z,92.19
2018-02-05T05:41:55.909Z,91.91
2018-02-05T05:42:55.888Z,92.24
2018-02-05T05:43:55.860Z,92.33
2018-02-05T05:44:55.822Z,92.33
2018-02-05T05:45:55.819Z,92.52
2018-02-05T05:46:55.760Z,93.18
2018-02-05T05:47:55.732Z,93.09
2018-02-05T05:48:55.700Z,93.28
2018-02-05T05:49:55.671Z,93.09
2018-02-05T05:50:55.676Z,93.18
2018-02-05T05:51:55.613Z,92.33
2018-02-05T05:52:55.579Z,92.33
2018-02-05T05:53:56.440Z,92.43
2018-02-05T05:54:55.521Z,91.96
2018-02-05T05:55:55.492Z,92.05
2018-02-05T05:56:55.499Z,92.24
2018-02-05T05:57:55.433Z,91.96
2018-02-05T05:58:55.396Z,91.96
2018-02-05T05:59:55.365Z,91.86
2018-02-05T06:00:55.340Z,92.05
2018-02-05T06:01:55.343Z,92.14
2018-02-05T06:02:55.299Z,92.05
2018-02-05T06:03:55.347Z,91.86
2018-02-05T06:04:55.223Z,92.05
2018-02-05T06:05:55.180Z,91.96
2018-02-05T06:06:55.158Z,92.61
2018-02-05T06:07:55.155Z,92.33
2018-02-05T06:08:55.090Z,92.05
2018-02-05T06:09:55.058Z,92.24
2018-02-05T06:10:55.032Z,91.96
2018-02-05T06:11:54.997Z,92.24
2018-02-05T06:12:55.001Z,91.20
2018-02-05T06:13:54.940Z,91.20
2018-02-05T06:14:54.908Z,91.39
2018-02-05T06:15:54.924Z,91.29
2018-02-05T06:16:54.846Z,91.10
2018-02-05T06:17:54.822Z,91.29
2018-02-05T06:18:54.786Z,91.39
2018-02-05T06:19:54.758Z,91.10
2018-02-05T06:20:54.837Z,91.48
2018-02-05T06:21:54.692Z,91.39
2018-02-05T06:22:54.675Z,91.48
2018-02-05T06:23:54.642Z,91.48
2018-02-05T06:24:54.603Z,91.77
2018-02-05T06:25:54.579Z,91.39
2018-02-05T06:26:54.583Z,91.67
2018-02-05T06:27:54.527Z,91.67
2018-02-05T06:28:54.483Z,91.58
2018-02-05T06:29:54.461Z,91.77
2018-02-05T06:30:54.417Z,91.77
2018-02-05T06:31:54.387Z,91.77
2018-02-05T06:32:54.386Z,91.77
2018-02-05T06:33:54.359Z,92.00
2018-02-05T06:34:54.302Z,91.05
2018-02-05T06:35:54.270Z,91.29
2018-02-05T06:36:54.234Z,91.43
2018-02-05T06:37:54.232Z,91.72
2018-02-05T06:38:54.175Z,91.53
2018-02-05T06:39:54.149Z,91.34
2018-02-05T06:40:54.114Z,91.15
2018-02-05T06:41:54.097Z,91.24
2018-02-05T06:42:54.087Z,91.15
2018-02-05T06:43:54.032Z,91.34
2018-02-05T06:44:53.994Z,91.34
2018-02-05T06:45:54.047Z,90.68
2018-02-05T06:46:53.929Z,90.68
2018-02-05T06:47:53.898Z,91.34
2018-02-05T06:48:53.870Z,91.05
2018-02-05T06:49:53.867Z,90.96
2018-02-05T06:50:53.818Z,90.96
2018-02-05T06:51:53.780Z,91.05
2018-02-05T06:52:53.749Z,90.86
2018-02-05T06:53:53.727Z,90.68
2018-02-05T06:54:53.714Z,90.77
2018-02-05T06:55:53.657Z,90.11
2018-02-05T06:56:53.625Z,90.11
2018-02-05T06:57:53.594Z,90.30
2018-02-05T06:58:53.562Z,90.30
2018-02-05T06:59:53.570Z,90.39
2018-02-05T07:00:53.503Z,90.39
2018-02-05T07:01:53.473Z,90.30
2018-02-05T07:02:53.446Z,90.20
2018-02-05T07:03:53.416Z,90.20
2018-02-05T07:04:53.382Z,90.20
2018-02-05T07:05:53.397Z,90.01
2018-02-05T07:06:53.326Z,90.01
2018-02-05T07:07:53.289Z,90.01
2018-02-05T07:08:53.259Z,89.92
2018-02-05T07:09:53.232Z,90.68
2018-02-05T07:10:53.201Z,90.68
2018-02-05T07:11:53.251Z,90.49
2018-02-05T07:12:53.140Z,90.68
2018-02-05T07:13:53.108Z,90.58
2018-02-05T07:14:53.077Z,90.86
2018-02-05T07:15:53.055Z,90.86
2018-02-05T07:16:53.017Z,90.58
2018-02-05T07:17:53.011Z,90.77
2018-02-05T07:18:52.958Z,90.77
2018-02-05T07:19:52.926Z,90.20
2018-02-05T07:20:52.918Z,89.92
2018-02-05T07:21:52.873Z,90.11
2018-02-05T07:22:52.873Z,89.54
2018-02-05T07:23:52.818Z,89.73
2018-02-05T07:24:52.770Z,89.73
2018-02-05T07:25:52.790Z,90.01
2018-02-05T07:26:52.714Z,89.45
2018-02-05T07:27:52.684Z,89.64
2018-02-05T07:28:52.659Z,89.73
2018-02-05T07:29:52.632Z,89.92
2018-02-05T07:30:52.677Z,89.64
2018-02-05T07:31:52.605Z,89.83
2018-02-05T07:32:52.532Z,89.36
2018-02-05T07:33:52.500Z,89.64
2018-02-05T07:34:52.523Z,89.83
2018-02-05T07:35:52.470Z,89.73
2018-02-05T07:36:52.413Z,89.64
2018-02-05T07:37:52.384Z,89.92
2018-02-05T07:38:52.347Z,89.73
2018-02-05T07:39:52.320Z,89.36
2018-02-05T07:40:52.313Z,89.26
2018-02-05T07:41:52.296Z,89.26
2018-02-05T07:42:52.231Z,89.26
2018-02-05T07:43:52.207Z,88.79
2018-02-05T07:44:52.168Z,88.69
2018-02-05T07:45:52.142Z,88.60
2018-02-05T07:46:52.112Z,88.60
2018-02-05T07:47:52.110Z,88.41
2018-02-05T07:48:52.045Z,87.98
2018-02-05T07:49:52.054Z,87.70
2018-02-05T07:50:52.017Z,87.88
2018-02-05T07:51:51.957Z,87.32
2018-02-05T07:52:51.926Z,87.04
2018-02-05T07:53:51.893Z,87.23
2018-02-05T07:54:51.870Z,87.23
2018-02-05T07:55:51.873Z,86.47
2018-02-05T07:56:51.806Z,85.99
2018-02-05T07:57:51.783Z,86.18
2018-02-05T07:58:51.760Z,86.18
2018-02-05T07:59:51.722Z,86.85
2018-02-05T08:00:51.745Z,86.47
2018-02-05T08:01:51.683Z,86.47
2018-02-05T08:02:51.638Z,86.28
2018-02-05T08:03:51.594Z,86.18
2018-02-05T08:04:51.565Z,86.37
2018-02-05T08:05:51.564Z,86.09
2018-02-05T08:06:51.511Z,86.56
2018-02-05T08:07:51.478Z,86.37
2018-02-05T08:08:51.446Z,86.75
2018-02-05T08:09:51.419Z,86.47
2018-02-05T08:10:51.425Z,86.37
2018-02-05T08:11:51.370Z,86.28
2018-02-05T08:12:51.333Z,85.99
2018-02-05T08:13:51.302Z,86.37
2018-02-05T08:14:51.267Z,86.28
2018-02-05T08:15:51.591Z,86.47
2018-02-05T08:16:51.221Z,86.18
2018-02-05T08:17:51.181Z,86.66
2018-02-05T08:18:51.153Z,86.37
2018-02-05T08:19:51.124Z,86.09
2018-02-05T08:20:51.117Z,86.37
2018-02-05T08:21:51.060Z,86.18
2018-02-05T08:22:51.047Z,86.37
2018-02-05T08:23:51.355Z,86.56
2018-02-05T08:24:50.974Z,86.56
2018-02-05T08:25:50.944Z,86.18
2018-02-05T08:26:50.920Z,86.56
2018-02-05T08:27:50.882Z,86.28
2018-02-05T08:28:50.863Z,85.99
2018-02-05T08:29:50.856Z,85.61
2018-02-05T08:30:50.796Z,85.61
2018-02-05T08:31:50.770Z,85.90
2018-02-05T08:32:50.746Z,85.71
2018-02-05T08:33:50.719Z,85.14
2018-02-05T08:34:50.724Z,84.86
2018-02-05T08:35:50.655Z,84.20
2018-02-05T08:36:50.617Z,83.53
2018-02-05T08:37:50.591Z,83.63
2018-02-05T08:38:50.557Z,84.10
2018-02-05T08:39:50.537Z,84.29
2018-02-05T08:40:50.531Z,84.77
2018-02-05T08:41:50.466Z,84.39
2018-02-05T08:42:50.437Z,84.77
2018-02-05T08:43:50.427Z,84.58
2018-02-05T08:44:50.438Z,83.82
2018-02-05T08:45:50.391Z,84.20
2018-02-05T08:46:50.336Z,84.10
2018-02-05T08:47:50.369Z,83.34
2018-02-05T08:48:50.271Z,83.34
2018-02-05T08:49:50.245Z,83.82
2018-02-05T08:50:50.214Z,83.44
2018-02-05T08:51:50.217Z,82.97
2018-02-05T08:52:50.150Z,82.97
2018-02-05T08:53:50.118Z,83.72
2018-02-05T08:54:50.091Z,83.44
2018-02-05T08:55:50.060Z,83.25
2018-02-05T08:56:50.060Z,83.06
2018-02-05T08:57:50.015Z,84.29
2018-02-05T08:58:49.982Z,84.01
2018-02-05T08:59:49.971Z,84.20
2018-02-05T09:00:49.943Z,83.34
2018-02-05T09:01:49.895Z,83.01
2018-02-05T09:02:49.856Z,82.97
2018-02-05T09:03:49.852Z,82.91
2018-02-05T09:04:49.812Z,82.72
2018-02-05T09:05:49.771Z,83.20
2018-02-05T09:06:49.743Z,83.10
2018-02-05T09:07:49.728Z,82.82
2018-02-05T09:08:50.356Z,82.44
2018-02-05T09:09:49.652Z,82.53
2018-02-05T09:10:49.629Z,82.34
2018-02-05T09:11:49.600Z,82.44
2018-02-05T09:12:49.565Z,81.87
2018-02-05T09:13:49.534Z,81.21
2018-02-05T09:14:49.540Z,81.30
2018-02-05T09:15:49.482Z,81.02
2018-02-05T09:16:49.455Z,80.64
2018-02-05T09:17:49.422Z,80.74
2018-02-05T09:18:49.397Z,80.83
2018-02-05T09:19:49.360Z,79.83
2018-02-05T09:20:49.363Z,78.03
2018-02-05T09:21:49.333Z,76.89
2018-02-05T09:22:49.310Z,75.79
2018-02-05T09:23:49.247Z,75.47
2018-02-05T09:24:49.215Z,76.42
2018-02-05T09:25:49.218Z,76.70
2018-02-05T09:26:49.163Z,77.37
2018-02-05T09:27:49.137Z,76.89
2018-02-05T09:28:49.107Z,76.99
2018-02-05T09:29:49.081Z,77.27
2018-02-05T09:30:49.078Z,77.56
2018-02-05T09:31:49.018Z,77.56
2018-02-05T09:32:48.996Z,77.56
2018-02-05T09:33:48.965Z,76.89
2018-02-05T09:34:48.936Z,76.89
2018-02-05T09:35:48.928Z,77.22
2018-02-05T09:36:48.875Z,76.74
2018-02-05T09:37:48.855Z,77.03
2018-02-05T09:38:48.822Z,77.40
2018-02-05T09:39:48.804Z,76.99
2018-02-05T09:40:48.788Z,76.42
2018-02-05T09:41:48.742Z,76.27
2018-02-05T09:42:48.707Z,75.19
2018-02-05T09:43:48.719Z,75.09
2018-02-05T09:44:48.661Z,75.19
2018-02-05T09:45:48.633Z,75.70
2018-02-05T09:46:48.598Z,75.60
2018-02-05T09:47:48.570Z,74.95
2018-02-05T09:48:48.540Z,75.13
2018-02-05T09:49:48.560Z,75.42
2018-02-05T09:50:48.512Z,75.13
2018-02-05T09:51:48.460Z,73.90
2018-02-05T09:52:48.427Z,73.05
2018-02-05T09:53:48.404Z,72.19
2018-02-05T09:54:48.387Z,71.28
2018-02-05T09:55:48.382Z,71.19
2018-02-05T09:56:48.324Z,70.05
2018-02-05T09:57:48.295Z,70.34
2018-02-05T09:58:48.268Z,69.48
2018-02-05T09:59:48.237Z,69.01
2018-02-05T10:00:48.247Z,69.01
2018-02-05T10:01:48.178Z,68.66
2018-02-05T10:02:48.161Z,66.67
2018-02-05T10:03:48.131Z,66.80
2018-02-05T10:04:48.119Z,66.04
2018-02-05T10:05:48.073Z,65.00
2018-02-05T10:06:48.083Z,63.83
2018-02-05T10:07:48.021Z,60.09
2018-02-05T10:08:48.001Z,57.07
2018-02-05T10:09:47.971Z,54.91
2018-02-05T10:10:47.939Z,53.11
2018-02-05T10:11:47.910Z,52.37
2018-02-05T10:12:47.912Z,49.97
2018-02-05T10:13:47.859Z,47.87
2018-02-05T10:14:47.836Z,46.89
2018-02-05T10:15:47.815Z,45.25
2018-02-05T10:16:47.785Z,43.36
2018-02-05T10:17:47.802Z,42.84
2018-02-05T10:18:47.737Z,43.03
2018-02-05T10:19:47.719Z,43.96
2018-02-05T10:20:47.698Z,44.74
2018-02-05T10:21:47.675Z,43.96
2018-02-05T10:22:47.650Z,44.73
2018-02-05T10:23:47.657Z,44.87
2018-02-05T10:24:47.602Z,45.99
2018-02-05T10:25:47.605Z,47.73
2018-02-05T10:26:47.560Z,46.18
2018-02-05T10:27:47.534Z,43.00
2018-02-05T10:28:47.519Z,38.83
2018-02-05T10:29:47.490Z,36.54
2018-02-05T10:30:47.493Z,36.77
2018-02-05T10:31:47.448Z,36.98
2018-02-05T10:32:47.445Z,37.44
2018-02-05T10:33:47.415Z,37.78
2018-02-05T10:34:47.384Z,39.39
2018-02-05T10:35:47.395Z,41.17
2018-02-05T10:36:47.342Z,42.30
2018-02-05T10:37:47.335Z,44.37
2018-02-05T10:38:47.303Z,45.59
2018-02-05T10:39:47.283Z,46.73
2018-02-05T10:40:47.305Z,47.85
2018-02-05T10:41:47.249Z,48.13
2018-02-05T10:42:47.219Z,48.92
2018-02-05T10:43:47.204Z,47.73
2018-02-05T10:44:47.185Z,44.27
2018-02-05T10:45:47.158Z,40.86
2018-02-05T10:46:47.174Z,39.08
2018-02-05T10:47:47.449Z,35.20
2018-02-05T10:48:47.098Z,33.36
2018-02-05T10:49:47.084Z,33.84
2018-02-05T10:50:47.093Z,35.22
2018-02-05T10:51:47.037Z,34.34
2018-02-05T10:52:47.013Z,33.24
2018-02-05T10:53:46.995Z,30.27
2018-02-05T10:54:46.999Z,30.09
2018-02-05T10:55:46.985Z,28.86
2018-02-05T10:56:46.938Z,28.53
2018-02-05T10:57:46.920Z,31.51
2018-02-05T10:58:46.910Z,33.78
2018-02-05T10:59:46.890Z,35.84
2018-02-05T11:00:46.900Z,36.76
2018-02-05T11:01:46.850Z,37.49
2018-02-05T11:02:46.833Z,39.95
2018-02-05T11:03:46.818Z,41.47
2018-02-05T11:04:46.870Z,41.17
2018-02-05T11:05:46.812Z,40.30
2018-02-05T11:06:46.756Z,37.32
2018-02-05T11:07:46.740Z,37.38
2018-02-05T11:08:46.719Z,38.22
2018-02-05T11:09:46.703Z,39.72
2018-02-05T11:10:46.708Z,40.17
2018-02-05T11:11:46.662Z,40.94
2018-02-05T11:12:46.645Z,42.24
2018-02-05T11:13:46.617Z,43.01
2018-02-05T11:14:46.642Z,44.14
2018-02-05T11:15:46.616Z,44.79
2018-02-05T11:16:46.564Z,44.69
2018-02-05T11:17:46.535Z,44.88
2018-02-05T11:18:46.535Z,44.69
2018-02-05T11:19:46.499Z,44.88
2018-02-05T11:20:46.509Z,45.26
2018-02-05T11:21:46.449Z,46.02
2018-02-05T11:22:46.460Z,46.33
2018-02-05T11:23:46.401Z,44.35
2018-02-05T11:24:46.429Z,43.52
2018-02-05T11:25:46.354Z,42.10
2018-02-05T11:26:46.350Z,41.74
2018-02-05T11:27:46.311Z,39.50
2018-02-05T11:28:46.312Z,39.28
2018-02-05T11:29:46.263Z,40.23
2018-02-05T11:30:46.247Z,40.50
2018-02-05T11:31:46.218Z,40.06
2018-02-05T11:32:46.193Z,36.81
2018-02-05T11:33:46.212Z,33.23
2018-02-05T11:34:46.149Z,30.86
2018-02-05T11:35:46.132Z,31.39
2018-02-05T11:36:46.138Z,32.79
2018-02-05T11:37:46.882Z,33.31
2018-02-05T11:38:46.062Z,34.05
2018-02-05T11:39:46.063Z,35.40
2018-02-05T11:40:46.026Z,33.66
2018-02-05T11:41:46.001Z,31.66
2018-02-05T11:42:45.979Z,32.20
2018-02-05T11:43:45.983Z,33.31
2018-02-05T11:44:45.960Z,34.53
2018-02-05T11:45:45.963Z,35.67
2018-02-05T11:46:45.906Z,35.86
2018-02-05T11:47:45.874Z,36.89
2018-02-05T11:48:45.879Z,37.44
2018-02-05T11:49:45.830Z,38.48
2018-02-05T11:50:45.806Z,38.96
2018-02-05T11:51:45.833Z,39.32
2018-02-05T11:52:45.765Z,40.46
2018-02-05T11:53:45.744Z,41.22
2018-02-05T11:54:45.720Z,41.22
2018-02-05T11:55:45.702Z,41.41
2018-02-05T11:56:45.691Z,40.48
2018-02-05T11:57:45.689Z,40.46
2018-02-05T11:58:45.636Z,40.56
2018-02-05T11:59:45.625Z,41.22
2018-02-05T12:00:45.594Z,41.98
2018-02-05T12:01:45.561Z,42.15
2018-02-05T12:02:45.579Z,42.72
2018-02-05T12:03:46.478Z,43.86
2018-02-05T12:04:45.493Z,43.10
2018-02-05T12:05:45.470Z,43.48
2018-02-05T12:06:45.444Z,43.48
2018-02-05T12:07:45.423Z,44.31
2018-02-05T12:08:45.429Z,44.98
2018-02-05T12:09:45.387Z,44.60
2018-02-05T12:10:45.349Z,44.09
2018-02-05T12:11:45.329Z,39.70
2018-02-05T12:12:45.304Z,35.19
2018-02-05T12:13:45.320Z,33.50
2018-02-05T12:14:45.258Z,30.78
2018-02-05T12:15:45.239Z,29.09
2018-02-05T12:16:45.222Z,28.55
2018-02-05T12:17:45.192Z,29.75
2018-02-05T12:18:45.175Z,30.56
2018-02-05T12:19:45.179Z,28.52
2018-02-05T12:20:45.132Z,26.04
2018-02-05T12:21:45.109Z,25.01
2018-02-05T12:22:45.083Z,23.58
2018-02-05T12:23:45.071Z,23.68
2018-02-05T12:24:45.088Z,25.55
2018-02-05T12:25:45.057Z,25.29
2018-02-05T12:26:45.008Z,25.10
2018-02-05T12:27:44.990Z,23.68
2018-02-05T12:28:44.975Z,21.50
2018-02-05T12:29:44.969Z,20.83
2018-02-05T12:30:44.984Z,20.84
2018-02-05T12:31:44.934Z,20.20
2018-02-05T12:32:44.919Z,18.76
2018-02-05T12:33:44.896Z,17.24
2018-02-05T12:34:44.874Z,17.13
2018-02-05T12:35:44.894Z,16.65
2018-02-05T12:36:44.861Z,16.55
2018-02-05T12:37:44.834Z,17.03
2018-02-05T12:38:44.819Z,17.31
2018-02-05T12:39:44.808Z,17.03
2018-02-05T12:40:44.820Z,16.64
2018-02-05T12:41:44.798Z,16.93
2018-02-05T12:42:44.805Z,16.28
2018-02-05T12:43:44.760Z,15.99
2018-02-05T12:44:44.763Z,15.63
2018-02-05T12:45:44.731Z,14.29
2018-02-05T12:46:44.734Z,13.71
2018-02-05T12:47:44.712Z,13.71
2018-02-05T12:48:44.728Z,13.51
2018-02-05T12:49:44.693Z,14.29
2018-02-05T12:50:44.704Z,13.62
2018-02-05T12:51:44.664Z,12.46